createdAt,value
2022-11-16T00:04:42.326Z,25.15
2022-11-16T00:09:48.710Z,22.30
2022-11-16T00:14:56.232Z,20.42
2022-11-16T00:20:02.336Z,27.83
2022-11-16T00:25:10.435Z,30.02
2022-11-16T00:30:18.905Z,25.23
2022-11-16T00:35:25.111Z,24.23
2022-11-16T00:40:31.717Z,28.10
2022-11-16T00:45:40.067Z,31.17
2022-11-16T00:50:47.924Z,24.38
2022-11-16T00:55:54.805Z,21.73
2022-11-16T01:01:08.601Z,20.58
2022-11-16T01:06:17.129Z,19.25
2022-11-16T01:11:40.313Z,24.98
2022-11-16T01:16:50.656Z,16.15
2022-11-16T01:21:57.283Z,21.15
2022-11-16T01:27:03.616Z,16.08
2022-11-16T01:32:14.806Z,18.67
2022-11-16T01:37:22.225Z,19.60
2022-11-16T01:42:33.871Z,19.67
2022-11-16T01:47:43.559Z,36.92
2022-11-16T01:53:01.306Z,33.30
2022-11-16T01:58:19.474Z,21.77
2022-11-16T02:03:30.797Z,22.98
2022-11-16T02:09:12.234Z,23.77
2022-11-16T02:14:46.378Z,52.58
2022-11-16T02:20:30.888Z,37.22
2022-11-16T02:25:49.581Z,35.15
2022-11-16T02:30:59.810Z,27.17
2022-11-16T02:36:10.674Z,24.73
2022-11-16T02:41:23.216Z,28.60
2022-11-16T02:46:37.720Z,49.00
2022-11-16T02:51:48.842Z,43.97
2022-11-16T02:56:57.556Z,49.97
2022-11-16T03:02:19.712Z,36.85
2022-11-16T03:07:33.967Z,57.53
2022-11-16T03:12:42.663Z,47.90
2022-11-16T03:17:52.218Z,54.47
2022-11-16T03:23:03.896Z,23.95
2022-11-16T03:28:15.321Z,29.60
2022-11-16T03:33:29.320Z,43.25
2022-11-16T03:38:40.030Z,57.08
2022-11-16T03:43:50.055Z,50.00
2022-11-16T03:49:03.563Z,29.67
2022-11-16T03:54:15.437Z,19.83
2022-11-16T03:59:22.858Z,21.08
2022-11-16T04:04:47.460Z,20.75
2022-11-16T04:10:11.480Z,19.98
2022-11-16T04:15:37.017Z,23.15
2022-11-16T04:21:04.447Z,27.38
2022-11-16T04:26:13.582Z,31.73
2022-11-16T04:37:07.433Z,43.45
2022-11-16T04:42:19.402Z,38.03
2022-11-16T04:47:28.642Z,20.67
2022-11-16T04:52:36.199Z,25.50
2022-11-16T04:57:45.123Z,25.00
2022-11-16T05:03:00.821Z,34.08
2022-11-16T05:08:09.860Z,86.10
2022-11-16T05:13:17.423Z,92.30
2022-11-16T05:18:24.261Z,75.13
2022-11-16T05:23:49.596Z,59.72
2022-11-16T05:29:00.804Z,57.75
2022-11-16T05:34:07.835Z,79.38
2022-11-16T05:39:15.925Z,68.22
2022-11-16T05:44:22.638Z,35.78
2022-11-16T05:49:29.665Z,54.53
2022-11-16T05:54:40.011Z,62.78
2022-11-16T05:59:46.494Z,58.75
2022-11-16T06:04:53.466Z,59.25
2022-11-16T06:10:02.178Z,56.30
2022-11-16T06:15:11.411Z,29.40
2022-11-16T06:20:18.337Z,22.10
2022-11-16T06:25:27.342Z,19.52
2022-11-16T06:30:34.168Z,20.58
2022-11-16T06:35:41.918Z,19.20
2022-11-16T06:40:52.891Z,16.75
2022-11-16T06:46:00.441Z,20.00
2022-11-16T06:51:07.347Z,20.05
2022-11-16T06:56:17.681Z,20.00
2022-11-16T07:01:30.162Z,21.35
2022-11-16T07:06:42.669Z,17.33
2022-11-16T07:11:50.459Z,16.27
2022-11-16T07:17:01.040Z,21.42
2022-11-16T07:22:08.424Z,17.13
2022-11-16T07:27:16.631Z,19.77
2022-11-16T07:32:27.399Z,15.48
2022-11-16T07:37:58.896Z,14.38
2022-11-16T07:43:06.468Z,18.58
2022-11-16T07:48:34.287Z,28.85
2022-11-16T07:53:57.079Z,18.45
2022-11-16T07:59:06.374Z,20.17
2022-11-16T08:04:17.821Z,15.38
2022-11-16T08:09:24.080Z,17.35
2022-11-16T08:14:33.327Z,34.42
2022-11-16T08:19:42.558Z,21.10
2022-11-16T08:24:52.370Z,20.05
2022-11-16T08:30:00.267Z,17.17
2022-11-16T08:35:07.412Z,9.63
2022-11-16T08:40:14.855Z,7.22
2022-11-16T08:45:23.517Z,8.07
2022-11-16T08:50:31.400Z,5.28
2022-11-16T08:55:39.755Z,8.23
2022-11-16T09:00:47.909Z,7.20
2022-11-16T09:05:54.564Z,5.43
2022-11-16T09:11:01.051Z,12.05
2022-11-16T09:16:09.974Z,7.53
2022-11-16T09:21:21.069Z,7.55
2022-11-16T09:26:27.972Z,6.18
2022-11-16T09:31:37.775Z,4.88
2022-11-16T09:36:43.889Z,7.65
2022-11-16T09:42:06.960Z,11.32
2022-11-16T09:47:22.061Z,12.48
2022-11-16T09:52:36.110Z,15.18
2022-11-16T09:57:42.672Z,12.55
2022-11-16T10:02:59.583Z,5.82
2022-11-16T10:08:15.383Z,5.97
2022-11-16T10:13:39.190Z,4.18
2022-11-16T10:18:57.061Z,6.13
2022-11-16T10:24:34.442Z,7.05
2022-11-16T10:29:58.121Z,7.15
2022-11-16T10:35:14.664Z,3.85
2022-11-16T10:40:25.731Z,10.40
2022-11-16T10:45:41.293Z,6.72
2022-11-16T10:50:51.785Z,12.82
2022-11-16T10:56:18.017Z,8.13
2022-11-16T11:01:33.631Z,6.68
2022-11-16T11:06:41.682Z,8.63
2022-11-16T11:12:19.166Z,4.03
2022-11-16T11:17:25.431Z,8.93
2022-11-16T11:22:34.910Z,11.85
2022-11-16T11:27:41.367Z,18.25
2022-11-16T11:32:48.153Z,13.82
2022-11-16T11:38:04.793Z,15.35
2022-11-16T11:43:25.553Z,17.15
2022-11-16T11:48:42.913Z,6.78
2022-11-16T11:53:57.109Z,6.07
2022-11-16T11:59:04.847Z,3.42
2022-11-16T12:04:51.912Z,3.40
2022-11-16T12:10:10.237Z,2.42
2022-11-16T12:15:46.991Z,13.83
2022-11-16T12:21:07.256Z,13.23
2022-11-16T12:26:25.296Z,13.73
2022-11-16T12:31:58.046Z,6.50
2022-11-16T12:37:12.494Z,5.25
2022-11-16T12:42:36.407Z,3.42
2022-11-16T12:48:13.660Z,13.98
2022-11-16T12:53:59.899Z,8.48
2022-11-16T12:59:32.666Z,22.50
2022-11-16T13:04:43.596Z,7.95
2022-11-16T13:09:55.878Z,7.40
2022-11-16T13:15:06.564Z,5.07
2022-11-16T13:20:34.883Z,2.33
2022-11-16T13:25:47.263Z,7.70
2022-11-16T13:31:06.648Z,3.00
2022-11-16T13:36:45.689Z,2.35
2022-11-16T13:42:06.650Z,9.15
2022-11-16T13:47:26.342Z,4.80
2022-11-16T13:53:36.363Z,10.70
2022-11-16T13:58:21.705Z,5.57
2022-11-16T14:03:38.994Z,2.63
2022-11-16T14:08:53.604Z,11.68
2022-11-16T14:14:02.430Z,5.68
2022-11-16T14:19:55.387Z,5.65
2022-11-16T14:25:11.191Z,7.03
2022-11-16T14:30:24.399Z,9.75
2022-11-16T14:35:37.031Z,9.07
2022-11-16T14:40:48.465Z,18.23
2022-11-16T14:45:58.452Z,8.38
2022-11-16T14:51:12.303Z,6.15
2022-11-16T14:56:21.036Z,5.35
2022-11-16T15:01:30.733Z,6.40
2022-11-16T15:06:45.594Z,20.20
2022-11-16T15:12:10.947Z,18.08
2022-11-16T15:17:20.985Z,25.75
2022-11-16T15:22:30.734Z,23.55
2022-11-16T15:27:40.724Z,19.02
2022-11-16T15:32:50.059Z,10.68
2022-11-16T15:38:15.366Z,14.02
2022-11-16T15:43:25.776Z,9.60
2022-11-16T15:48:33.690Z,10.23
2022-11-16T15:53:44.198Z,11.30
2022-11-16T15:58:51.169Z,12.23
2022-11-16T16:04:00.859Z,8.43
2022-11-16T16:09:21.642Z,14.98
2022-11-16T16:14:31.425Z,12.13
2022-11-16T16:19:43.141Z,8.98
2022-11-16T16:24:51.264Z,5.43
2022-11-16T16:30:00.667Z,5.93
2022-11-16T16:35:18.962Z,7.53
2022-11-16T16:40:27.905Z,5.55
2022-11-16T16:45:39.261Z,5.40
2022-11-16T16:50:45.878Z,3.67
2022-11-16T16:55:54.777Z,6.40
2022-11-16T17:01:05.310Z,5.20
2022-11-16T17:06:13.034Z,6.82
2022-11-16T17:11:21.354Z,4.90
2022-11-16T17:16:29.082Z,6.82
2022-11-16T17:21:37.740Z,6.70
2022-11-16T17:26:48.920Z,7.45
2022-11-16T17:31:57.693Z,10.85
2022-11-16T17:37:04.829Z,7.78
2022-11-16T17:42:13.057Z,8.00
2022-11-16T17:47:21.991Z,9.82
2022-11-16T17:52:29.939Z,5.10
2022-11-16T17:57:39.177Z,6.00
2022-11-16T18:02:47.265Z,4.72
2022-11-16T18:07:54.299Z,4.65
2022-11-16T18:13:02.669Z,4.93
2022-11-16T18:18:10.405Z,5.70
2022-11-16T18:23:17.339Z,6.88
2022-11-16T18:28:27.214Z,6.03
2022-11-16T18:33:35.365Z,6.20
2022-11-16T18:38:43.561Z,6.07
2022-11-16T18:43:55.201Z,5.67
2022-11-16T18:49:04.246Z,5.38
2022-11-16T18:54:12.081Z,5.47
2022-11-16T18:59:21.578Z,7.60
2022-11-16T19:04:29.462Z,5.10
2022-11-16T19:09:36.757Z,6.85
2022-11-16T19:14:46.531Z,4.35
2022-11-16T19:19:53.835Z,5.65
2022-11-16T19:25:05.834Z,5.22
2022-11-16T19:30:21.659Z,4.90
2022-11-16T19:35:29.169Z,5.35
2022-11-16T19:40:39.909Z,6.57
2022-11-16T19:45:49.351Z,7.22
2022-11-16T19:50:57.084Z,5.18
2022-11-16T19:56:05.077Z,10.35
2022-11-16T20:01:17.815Z,7.28
2022-11-16T20:06:30.948Z,5.13
2022-11-16T20:11:40.631Z,11.70
2022-11-16T20:16:52.061Z,7.47
2022-11-16T20:22:00.656Z,7.80
2022-11-16T20:27:09.294Z,8.93
2022-11-16T20:32:18.847Z,6.93
2022-11-16T20:37:26.783Z,8.30
2022-11-16T20:42:34.425Z,7.22
2022-11-16T20:47:42.935Z,6.35
2022-11-16T20:52:52.900Z,5.70
2022-11-16T20:58:00.195Z,7.60
2022-11-16T21:03:08.839Z,6.65
2022-11-16T21:08:16.485Z,7.25
2022-11-16T21:13:39.800Z,8.90
2022-11-16T21:18:50.650Z,6.03
2022-11-16T21:23:57.311Z,6.03
2022-11-16T21:29:04.187Z,7.57
2022-11-16T21:34:12.389Z,7.38
2022-11-16T21:39:19.185Z,4.63
2022-11-16T21:44:25.695Z,5.32
2022-11-16T21:49:33.379Z,7.15
2022-11-16T21:54:49.070Z,6.47
2022-11-16T21:59:55.908Z,7.78
2022-11-16T22:05:20.967Z,5.97
2022-11-16T22:10:27.237Z,6.22
2022-11-16T22:15:33.564Z,8.27
2022-11-16T22:20:41.586Z,5.05
2022-11-16T22:25:47.816Z,5.50
2022-11-16T22:31:02.914Z,5.57
2022-11-16T22:36:13.612Z,9.77
2022-11-16T22:41:20.440Z,6.05
2022-11-16T22:46:26.873Z,6.75
2022-11-16T22:51:35.436Z,6.10
2022-11-16T22:56:41.880Z,8.00
2022-11-16T23:01:48.033Z,8.07
2022-11-16T23:06:55.524Z,7.10
2022-11-16T23:12:18.833Z,5.50
2022-11-16T23:17:24.983Z,6.32
2022-11-16T23:22:49.626Z,7.80
2022-11-16T23:28:01.885Z,6.25
2022-11-16T23:33:08.825Z,7.05
2022-11-16T23:38:16.903Z,6.20
2022-11-16T23:43:40.814Z,5.55
2022-11-16T23:48:47.035Z,7.57
2022-11-16T23:53:56.175Z,6.25
